createdAt,value
2019-05-03T00:00:07.802Z,50.00
2019-05-03T00:02:34.379Z,49.85
2019-05-03T00:05:02.372Z,50.38
2019-05-03T00:07:29.066Z,51.06
2019-05-03T00:09:55.668Z,51.08
2019-05-03T00:12:22.278Z,51.25
2019-05-03T00:14:48.941Z,51.26
2019-05-03T00:17:15.529Z,51.45
2019-05-03T00:19:42.328Z,51.42
2019-05-03T00:22:09.073Z,51.23
2019-05-03T00:24:35.674Z,51.42
2019-05-03T00:27:02.270Z,51.67
2019-05-03T00:29:28.865Z,52.11
2019-05-03T00:31:55.449Z,52.04
2019-05-03T00:34:22.772Z,52.14
2019-05-03T00:36:49.346Z,52.62
2019-05-03T00:39:15.955Z,52.45
2019-05-03T00:41:42.646Z,52.23
2019-05-03T00:44:09.355Z,52.27
2019-05-03T00:46:35.925Z,52.32
2019-05-03T00:49:03.816Z,52.16
2019-05-03T00:51:31.794Z,52.26
2019-05-03T00:53:59.617Z,52.61
2019-05-03T00:56:26.201Z,52.04
2019-05-03T00:58:53.107Z,52.10
2019-05-03T01:01:19.865Z,51.92
2019-05-03T01:03:46.440Z,52.65
2019-05-03T01:06:13.058Z,52.36
2019-05-03T01:08:39.633Z,52.30
2019-05-03T01:11:06.233Z,52.47
2019-05-03T01:13:32.811Z,52.48
2019-05-03T01:15:59.423Z,52.41
2019-05-03T01:18:25.999Z,52.56
2019-05-03T01:20:52.614Z,52.73
2019-05-03T01:23:19.190Z,52.91
2019-05-03T01:25:45.805Z,52.81
2019-05-03T01:28:12.382Z,52.77
2019-05-03T01:30:38.997Z,52.99
2019-05-03T01:33:05.624Z,52.98
2019-05-03T01:35:32.406Z,53.02
2019-05-03T01:37:59.024Z,52.79
2019-05-03T01:40:25.632Z,52.88
2019-05-03T01:42:52.206Z,52.67
2019-05-03T01:45:18.822Z,52.84
2019-05-03T01:47:45.396Z,52.97
2019-05-03T01:50:12.212Z,53.29
2019-05-03T01:52:38.866Z,53.20
2019-05-03T01:55:05.482Z,53.21
2019-05-03T01:57:32.481Z,53.28
2019-05-03T01:59:59.150Z,53.60
2019-05-03T02:02:25.730Z,53.46
2019-05-03T02:04:53.389Z,53.37
2019-05-03T02:07:22.229Z,53.20
2019-05-03T02:09:48.432Z,53.38
2019-05-03T02:12:15.006Z,52.94
2019-05-03T02:14:42.255Z,53.29
2019-05-03T02:17:08.975Z,53.56
2019-05-03T02:19:35.539Z,53.19
2019-05-03T02:22:02.916Z,53.74
2019-05-03T02:24:29.586Z,53.62
2019-05-03T02:26:56.241Z,53.74
2019-05-03T02:29:22.834Z,53.89
2019-05-03T02:31:49.443Z,54.00
2019-05-03T02:34:16.033Z,54.07
2019-05-03T02:36:42.981Z,54.33
2019-05-03T02:39:09.679Z,54.42
2019-05-03T02:41:36.273Z,54.70
2019-05-03T02:44:02.863Z,55.14
2019-05-03T02:46:29.487Z,55.33
2019-05-03T02:48:56.058Z,56.11
2019-05-03T02:51:22.653Z,55.96
2019-05-03T02:53:49.227Z,55.86
2019-05-03T02:56:22.199Z,55.63
2019-05-03T02:58:46.037Z,56.18
2019-05-03T03:01:12.489Z,56.51
2019-05-03T03:03:39.146Z,56.46
2019-05-03T03:06:06.788Z,55.96
2019-05-03T03:08:36.710Z,55.84
2019-05-03T03:11:02.069Z,56.07
2019-05-03T03:13:28.661Z,56.38
2019-05-03T03:15:55.486Z,56.04
2019-05-03T03:18:22.125Z,56.13
2019-05-03T03:20:48.746Z,56.48
2019-05-03T03:23:17.959Z,56.66
2019-05-03T03:25:46.033Z,56.80
2019-05-03T03:28:11.955Z,56.93
2019-05-03T03:30:38.863Z,57.07
2019-05-03T03:33:08.755Z,57.12
2019-05-03T03:35:37.685Z,56.91
2019-05-03T03:38:02.142Z,56.99
2019-05-03T03:40:28.730Z,56.56
2019-05-03T03:42:55.828Z,56.26
2019-05-03T03:45:25.174Z,56.56
2019-05-03T03:47:50.919Z,57.02
2019-05-03T03:50:17.505Z,56.47
2019-05-03T03:52:45.186Z,55.71
2019-05-03T03:55:11.968Z,56.26
2019-05-03T03:57:38.584Z,56.25
2019-05-03T04:00:05.439Z,56.52
2019-05-03T04:02:35.122Z,56.64
2019-05-03T04:05:00.445Z,57.10
2019-05-03T04:07:27.107Z,56.60
2019-05-03T04:09:56.095Z,57.02
2019-05-03T04:12:21.999Z,57.14
2019-05-03T04:14:48.592Z,57.25
2019-05-03T04:17:15.286Z,57.49
2019-05-03T04:19:41.854Z,57.24
2019-05-03T04:22:08.454Z,57.21
2019-05-03T04:24:35.232Z,57.25
2019-05-03T04:27:15.547Z,56.61
2019-05-03T04:29:30.312Z,56.89
2019-05-03T04:31:56.928Z,56.55
2019-05-03T04:34:26.156Z,56.59
2019-05-03T04:36:51.829Z,57.10
2019-05-03T04:39:20.198Z,57.00
2019-05-03T04:41:46.720Z,57.13
2019-05-03T04:44:15.444Z,56.96
2019-05-03T04:46:41.630Z,57.21
2019-05-03T04:49:08.206Z,57.19
2019-05-03T04:51:35.131Z,57.07
2019-05-03T04:54:01.945Z,57.05
2019-05-03T04:56:28.519Z,57.30
2019-05-03T04:58:55.967Z,57.07
2019-05-03T05:01:22.688Z,57.63
2019-05-03T05:03:49.298Z,57.98
2019-05-03T05:06:15.883Z,57.99
2019-05-03T05:08:42.494Z,57.84
2019-05-03T05:11:10.570Z,57.88
2019-05-03T05:13:37.339Z,57.84
2019-05-03T05:16:05.956Z,57.51
2019-05-03T05:18:32.250Z,57.22
2019-05-03T05:20:58.821Z,57.07
2019-05-03T05:23:25.437Z,56.67
2019-05-03T05:25:52.022Z,56.45
2019-05-03T05:28:18.641Z,56.14
2019-05-03T05:30:45.210Z,56.31
2019-05-03T05:33:11.910Z,56.25
2019-05-03T05:35:38.487Z,55.90
2019-05-03T05:38:05.087Z,56.04
2019-05-03T05:40:31.672Z,56.15
2019-05-03T05:42:58.286Z,55.88
2019-05-03T05:45:24.879Z,56.02
2019-05-03T05:47:51.489Z,55.97
2019-05-03T05:50:18.076Z,55.94
2019-05-03T05:52:44.940Z,55.81
2019-05-03T05:55:11.642Z,55.73
2019-05-03T05:57:38.213Z,55.45
2019-05-03T06:00:04.968Z,55.49
2019-05-03T06:02:31.584Z,55.67
2019-05-03T06:04:58.204Z,55.40
2019-05-03T06:07:24.927Z,55.01
2019-05-03T06:09:51.664Z,54.87
2019-05-03T06:12:18.248Z,54.65
2019-05-03T06:14:45.338Z,54.40
2019-05-03T06:17:12.057Z,54.28
2019-05-03T06:19:38.673Z,54.20
2019-05-03T06:22:05.252Z,54.07
2019-05-03T06:24:31.862Z,53.92
2019-05-03T06:26:58.430Z,53.91
2019-05-03T06:29:25.023Z,53.95
2019-05-03T06:31:51.598Z,53.77
2019-05-03T06:34:18.208Z,53.80
2019-05-03T06:36:44.839Z,53.93
2019-05-03T06:39:11.444Z,54.11
2019-05-03T06:41:38.103Z,54.01
2019-05-03T06:44:04.742Z,53.80
2019-05-03T06:46:31.520Z,53.63
2019-05-03T06:49:01.068Z,53.40
2019-05-03T06:51:26.411Z,53.23
2019-05-03T06:53:54.669Z,53.05
2019-05-03T06:56:25.177Z,52.64
2019-05-03T06:58:49.703Z,52.23
2019-05-03T07:01:16.315Z,51.98
2019-05-03T07:03:44.741Z,51.46
2019-05-03T07:06:11.261Z,51.03
2019-05-03T07:08:37.841Z,50.85
2019-05-03T07:11:05.242Z,50.70
2019-05-03T07:13:32.006Z,50.43
2019-05-03T07:15:58.605Z,49.73
2019-05-03T07:18:25.190Z,49.26
2019-05-03T07:20:54.386Z,49.20
2019-05-03T07:23:20.111Z,49.17
2019-05-03T07:25:46.714Z,48.59
2019-05-03T07:28:14.973Z,48.40
2019-05-03T07:30:41.707Z,47.93
2019-05-03T07:33:08.287Z,48.04
2019-05-03T07:35:35.368Z,48.04
2019-05-03T07:38:02.095Z,48.07
2019-05-03T07:40:28.704Z,47.94
2019-05-03T07:42:55.677Z,48.02
2019-05-03T07:45:22.354Z,48.06
2019-05-03T07:47:48.945Z,48.05
2019-05-03T07:50:15.566Z,47.83
2019-05-03T07:52:42.140Z,47.86
2019-05-03T07:55:08.752Z,47.62
2019-05-03T07:57:35.785Z,47.49
2019-05-03T08:00:02.483Z,47.02
2019-05-03T08:02:29.730Z,46.72
2019-05-03T08:04:56.434Z,46.60
2019-05-03T08:07:25.492Z,46.40
2019-05-03T08:09:51.332Z,45.69
2019-05-03T08:12:17.949Z,45.62
2019-05-03T08:14:44.704Z,45.08
2019-05-03T08:17:11.484Z,44.62
2019-05-03T08:19:38.062Z,44.05
2019-05-03T08:22:05.050Z,43.96
2019-05-03T08:24:31.734Z,43.25
2019-05-03T08:26:58.346Z,43.47
2019-05-03T08:29:25.019Z,43.38
2019-05-03T08:31:51.620Z,43.23
2019-05-03T08:34:18.203Z,43.31
2019-05-03T08:36:45.209Z,43.24
2019-05-03T08:39:11.970Z,42.94
2019-05-03T08:41:38.579Z,42.53
2019-05-03T08:44:05.283Z,42.28
2019-05-03T08:46:32.076Z,42.21
2019-05-03T08:48:58.647Z,42.20
2019-05-03T08:51:25.260Z,41.99
2019-05-03T08:53:51.835Z,41.68
2019-05-03T08:56:18.430Z,41.54
2019-05-03T08:58:45.236Z,41.52
2019-05-03T09:01:11.998Z,41.64
2019-05-03T09:03:38.587Z,41.67
2019-05-03T09:06:05.201Z,41.62
2019-05-03T09:08:31.827Z,41.40
2019-05-03T09:10:58.447Z,41.47
2019-05-03T09:13:25.256Z,41.84
2019-05-03T09:15:51.969Z,41.99
2019-05-03T09:18:18.584Z,42.11
2019-05-03T09:20:45.182Z,42.50
2019-05-03T09:23:11.860Z,43.00
2019-05-03T09:25:38.430Z,43.25
2019-05-03T09:28:05.039Z,44.01
2019-05-03T09:30:32.618Z,45.44
2019-05-03T09:33:00.754Z,44.86
2019-05-03T09:35:32.967Z,45.49
2019-05-03T09:37:55.673Z,46.26
2019-05-03T09:40:24.464Z,46.51
2019-05-03T09:42:50.575Z,47.02
2019-05-03T09:45:17.155Z,46.97
2019-05-03T09:47:44.847Z,47.37
2019-05-03T09:50:11.528Z,47.79
2019-05-03T09:52:39.267Z,48.15
2019-05-03T09:55:05.831Z,48.52
2019-05-03T09:57:34.630Z,48.76
2019-05-03T10:00:00.741Z,49.16
2019-05-03T10:02:27.341Z,49.48
2019-05-03T10:04:55.402Z,49.84
2019-05-03T10:07:22.196Z,50.28
2019-05-03T10:09:48.777Z,50.29
2019-05-03T10:12:16.151Z,50.38
2019-05-03T10:14:45.072Z,50.49
2019-05-03T10:17:11.368Z,50.81
2019-05-03T10:19:40.418Z,50.70
2019-05-03T10:22:06.288Z,50.65
2019-05-03T10:24:34.765Z,51.48
2019-05-03T10:27:01.194Z,51.49
2019-05-03T10:29:27.755Z,51.67
2019-05-03T10:31:54.611Z,51.87
2019-05-03T10:34:21.322Z,52.68
2019-05-03T10:36:47.939Z,52.48
2019-05-03T10:39:15.499Z,53.04
2019-05-03T10:41:42.182Z,52.98
2019-05-03T10:44:08.754Z,53.72
2019-05-03T10:46:35.330Z,53.75
2019-05-03T10:49:01.928Z,53.45
2019-05-03T10:51:28.501Z,53.63
2019-05-03T10:53:55.275Z,53.78
2019-05-03T10:56:24.493Z,54.00
2019-05-03T10:58:50.193Z,53.92
2019-05-03T11:01:16.775Z,54.62
2019-05-03T11:03:45.144Z,55.26
2019-05-03T11:06:11.819Z,55.73
2019-05-03T11:08:38.431Z,54.73
2019-05-03T11:11:05.903Z,54.35
2019-05-03T11:13:32.590Z,54.51
2019-05-03T11:15:59.170Z,54.96
2019-05-03T11:18:25.771Z,55.03
2019-05-03T11:20:52.337Z,55.08
2019-05-03T11:23:18.954Z,55.53
2019-05-03T11:25:45.525Z,55.36
2019-05-03T11:28:12.122Z,55.04
2019-05-03T11:30:46.326Z,55.23
2019-05-03T11:33:07.025Z,55.14
2019-05-03T11:35:35.103Z,55.55
2019-05-03T11:38:01.821Z,55.89
2019-05-03T11:40:28.404Z,56.15
2019-05-03T11:42:55.384Z,55.67
2019-05-03T11:45:22.101Z,55.85
2019-05-03T11:47:48.737Z,55.66
2019-05-03T11:50:15.332Z,55.75
2019-05-03T11:52:41.906Z,54.93
2019-05-03T11:55:11.518Z,54.05
2019-05-03T11:57:36.850Z,53.80
2019-05-03T12:00:05.258Z,53.40
2019-05-03T12:02:31.757Z,53.22
2019-05-03T12:04:58.356Z,53.13
2019-05-03T12:07:36.559Z,53.33
2019-05-03T12:09:54.691Z,53.46
2019-05-03T12:12:21.387Z,53.61
2019-05-03T12:14:47.971Z,53.16
2019-05-03T12:17:21.016Z,53.35
2019-05-03T12:19:44.275Z,52.64
2019-05-03T12:22:11.658Z,52.07
2019-05-03T12:24:39.348Z,51.96
2019-05-03T12:27:06.411Z,51.67
2019-05-03T12:29:35.149Z,51.14
2019-05-03T12:32:01.346Z,50.22
2019-05-03T12:34:28.001Z,49.66
2019-05-03T12:36:54.580Z,49.21
2019-05-03T12:39:26.706Z,48.51
2019-05-03T12:41:49.496Z,48.48
2019-05-03T12:44:16.097Z,48.69
2019-05-03T12:46:44.878Z,48.42
2019-05-03T12:49:11.002Z,48.50
2019-05-03T12:51:37.571Z,48.77
2019-05-03T12:54:04.848Z,48.83
2019-05-03T12:56:32.953Z,49.32
2019-05-03T12:58:59.932Z,50.08
2019-05-03T13:01:40.624Z,50.10
2019-05-03T13:03:55.443Z,50.35
2019-05-03T13:06:22.230Z,50.72
2019-05-03T13:08:48.800Z,50.94
2019-05-03T13:11:15.449Z,51.00
2019-05-03T13:13:42.024Z,51.41
2019-05-03T13:16:08.612Z,51.80
2019-05-03T13:18:35.537Z,52.21
2019-05-03T13:21:05.618Z,52.44
2019-05-03T13:23:30.711Z,52.46
2019-05-03T13:25:57.363Z,52.78
2019-05-03T13:28:25.438Z,53.02
2019-05-03T13:30:52.247Z,54.11
2019-05-03T13:33:19.392Z,53.63
2019-05-03T13:35:46.020Z,53.97
2019-05-03T13:38:12.601Z,54.14
2019-05-03T13:40:39.221Z,54.28
2019-05-03T13:43:06.588Z,54.18
2019-05-03T13:45:35.382Z,54.20
2019-05-03T13:48:01.801Z,54.11
2019-05-03T13:50:28.467Z,54.28
2019-05-03T13:52:55.917Z,54.27
2019-05-03T13:55:24.527Z,54.28
2019-05-03T13:57:50.950Z,54.26
2019-05-03T14:00:17.622Z,54.28
2019-05-03T14:02:44.946Z,54.33
2019-05-03T14:05:11.769Z,54.28
2019-05-03T14:07:38.352Z,54.30
2019-05-03T14:10:04.974Z,54.35
2019-05-03T14:12:31.554Z,54.32
2019-05-03T14:14:58.265Z,54.36
2019-05-03T14:17:25.296Z,54.14
2019-05-03T14:19:51.887Z,54.15
2019-05-03T14:22:18.484Z,54.07
2019-05-03T14:24:45.075Z,54.05
2019-05-03T14:27:11.683Z,54.12
2019-05-03T14:29:38.266Z,54.10
2019-05-03T14:32:06.066Z,54.00
2019-05-03T14:34:32.632Z,53.82
2019-05-03T14:36:59.234Z,53.58
2019-05-03T14:39:25.811Z,53.47
2019-05-03T14:41:55.343Z,53.13
2019-05-03T14:44:21.765Z,53.06
2019-05-03T14:46:48.379Z,52.99
2019-05-03T14:49:14.971Z,52.96
2019-05-03T14:51:41.577Z,52.83
2019-05-03T14:54:08.159Z,52.84
2019-05-03T14:56:34.898Z,52.94
2019-05-03T14:59:01.516Z,52.92
2019-05-03T15:01:28.122Z,53.03
2019-05-03T15:03:55.054Z,53.26
2019-05-03T15:06:21.674Z,53.45
2019-05-03T15:08:48.253Z,53.53
2019-05-03T15:11:14.971Z,53.68
2019-05-03T15:13:41.611Z,53.78
2019-05-03T15:16:08.207Z,53.89
2019-05-03T15:18:34.951Z,54.03
2019-05-03T15:21:01.728Z,53.99
2019-05-03T15:23:28.642Z,54.15
2019-05-03T15:25:55.207Z,54.01
2019-05-03T15:28:21.812Z,54.01
2019-05-03T15:30:48.395Z,53.96
2019-05-03T15:33:15.166Z,53.83
2019-05-03T15:35:44.564Z,53.72
2019-05-03T15:38:10.103Z,53.66
2019-05-03T15:40:36.680Z,53.65
2019-05-03T15:43:05.390Z,53.78
2019-05-03T15:45:31.592Z,53.59
2019-05-03T15:47:58.189Z,53.46
2019-05-03T15:50:25.145Z,53.42
2019-05-03T15:52:51.862Z,53.42
2019-05-03T15:55:18.439Z,53.46
2019-05-03T15:57:45.085Z,53.11
2019-05-03T16:00:11.651Z,52.93
2019-05-03T16:02:38.268Z,52.98
2019-05-03T16:05:04.930Z,53.04
2019-05-03T16:07:31.625Z,53.05
2019-05-03T16:09:58.202Z,53.09
2019-05-03T16:12:24.823Z,53.07
2019-05-03T16:14:51.397Z,53.01
2019-05-03T16:17:17.995Z,52.79
2019-05-03T16:19:45.117Z,52.74
2019-05-03T16:22:14.377Z,52.68
2019-05-03T16:24:41.149Z,52.77
2019-05-03T16:27:08.329Z,52.91
2019-05-03T16:29:34.906Z,53.11
2019-05-03T16:32:01.490Z,53.39
2019-05-03T16:34:28.112Z,53.15
2019-05-03T16:36:54.951Z,53.34
2019-05-03T16:39:21.591Z,53.37
2019-05-03T16:41:48.175Z,53.56
2019-05-03T16:44:16.497Z,53.38
2019-05-03T16:46:44.847Z,53.62
2019-05-03T16:49:11.615Z,53.54
2019-05-03T16:51:38.198Z,53.56
2019-05-03T16:54:04.805Z,53.63
2019-05-03T16:56:31.381Z,53.56
2019-05-03T16:58:57.996Z,53.90
2019-05-03T17:01:24.573Z,54.17
2019-05-03T17:03:51.321Z,54.00
2019-05-03T17:06:17.902Z,53.87
2019-05-03T17:08:45.260Z,53.83
2019-05-03T17:11:11.960Z,54.05
2019-05-03T17:13:38.687Z,53.94
2019-05-03T17:16:06.838Z,53.86
2019-05-03T17:18:35.276Z,53.94
2019-05-03T17:21:02.024Z,53.68
2019-05-03T17:23:28.622Z,53.86
2019-05-03T17:25:55.194Z,53.96
2019-05-03T17:28:21.804Z,53.75
2019-05-03T17:30:48.378Z,53.82
2019-05-03T17:33:16.120Z,53.91
2019-05-03T17:35:42.777Z,53.86
2019-05-03T17:38:09.475Z,54.06
2019-05-03T17:40:36.059Z,54.15
2019-05-03T17:43:02.670Z,54.08
2019-05-03T17:48:21.112Z,54.33
2019-05-03T17:50:47.713Z,54.21
2019-05-03T17:53:14.749Z,54.43
2019-05-03T17:55:41.465Z,54.42
2019-05-03T17:58:08.046Z,54.38
2019-05-03T18:00:34.977Z,54.08
2019-05-03T18:03:01.716Z,54.14
2019-05-03T18:05:28.323Z,54.32
2019-05-03T18:07:54.898Z,54.08
2019-05-03T18:10:21.509Z,54.27
2019-05-03T18:12:48.091Z,54.14
2019-05-03T18:15:14.825Z,54.38
2019-05-03T18:17:41.445Z,54.23
2019-05-03T18:20:08.061Z,54.27
2019-05-03T18:22:34.637Z,54.06
2019-05-03T18:25:01.259Z,54.18
2019-05-03T18:27:27.826Z,54.18
2019-05-03T18:29:55.425Z,54.13
2019-05-03T18:32:22.197Z,54.28
2019-05-03T18:34:49.772Z,54.38
2019-05-03T18:37:17.073Z,54.10
2019-05-03T18:39:45.277Z,54.03
2019-05-03T18:42:12.021Z,54.29
2019-05-03T18:44:38.601Z,54.28
2019-05-03T18:47:05.506Z,54.40
2019-05-03T18:49:32.180Z,54.39
2019-05-03T18:51:58.779Z,54.70
2019-05-03T18:54:25.346Z,54.50
2019-05-03T18:56:51.956Z,54.70
2019-05-03T18:59:18.524Z,54.52
2019-05-03T19:01:45.321Z,54.71
2019-05-03T19:04:12.033Z,54.91
2019-05-03T19:06:38.635Z,54.84
2019-05-03T19:09:05.345Z,54.80
2019-05-03T19:11:32.097Z,55.10
2019-05-03T19:13:58.777Z,55.37
2019-05-03T19:16:25.401Z,55.26
2019-05-03T19:18:51.964Z,55.11
2019-05-03T19:21:18.574Z,55.01
2019-05-03T19:23:45.164Z,55.60
2019-05-03T19:26:11.784Z,55.77
2019-05-03T19:28:38.364Z,55.62
2019-05-03T19:31:05.394Z,55.29
2019-05-03T19:33:32.180Z,55.90
2019-05-03T19:36:00.272Z,55.43
2019-05-03T19:38:27.066Z,55.60
2019-05-03T19:40:54.823Z,56.13
2019-05-03T19:43:21.558Z,56.33
2019-05-03T19:45:48.142Z,56.43
2019-05-03T19:48:16.867Z,56.91
2019-05-03T19:50:44.553Z,57.49
2019-05-03T19:53:11.236Z,57.33
2019-05-03T19:55:37.804Z,56.84
2019-05-03T19:58:05.459Z,57.64
2019-05-03T20:00:32.254Z,57.00
2019-05-03T20:02:58.876Z,57.76
2019-05-03T20:05:25.454Z,57.70
2019-05-03T20:07:52.067Z,57.30
2019-05-03T20:10:18.629Z,57.14
2019-05-03T20:12:45.233Z,57.67
2019-05-03T20:15:11.801Z,57.39
2019-05-03T20:17:38.409Z,57.93
2019-05-03T20:20:04.984Z,57.98
2019-05-03T20:22:31.578Z,57.96
2019-05-03T20:24:58.151Z,58.16
2019-05-03T20:27:24.751Z,58.12
2019-05-03T20:29:51.323Z,58.33
2019-05-03T20:32:18.120Z,58.67
2019-05-03T20:34:44.707Z,58.32
2019-05-03T20:37:12.131Z,58.38
2019-05-03T20:39:39.289Z,57.89
2019-05-03T20:42:05.879Z,58.11
2019-05-03T20:44:32.481Z,57.92
2019-05-03T20:46:59.057Z,58.28
2019-05-03T20:49:25.677Z,58.19
2019-05-03T20:51:54.124Z,57.94
2019-05-03T20:54:20.609Z,58.11
2019-05-03T20:56:47.180Z,58.11
2019-05-03T20:59:14.739Z,58.01
2019-05-03T21:01:41.453Z,58.03
2019-05-03T21:04:08.119Z,58.55
2019-05-03T21:06:35.815Z,57.89
2019-05-03T21:09:04.579Z,58.22
2019-05-03T21:11:31.092Z,57.98
2019-05-03T21:13:57.717Z,58.17
2019-05-03T21:16:26.199Z,58.35
2019-05-03T21:18:52.634Z,58.33
2019-05-03T21:21:19.234Z,58.33
2019-05-03T21:23:45.844Z,58.46
2019-05-03T21:26:15.969Z,58.20
2019-05-03T21:28:40.726Z,57.99
2019-05-03T21:31:07.303Z,57.75
2019-05-03T21:33:35.491Z,57.79
2019-05-03T21:36:04.487Z,57.70
2019-05-03T21:38:30.680Z,57.58
2019-05-03T21:41:00.588Z,57.75
2019-05-03T21:43:27.183Z,57.71
2019-05-03T21:45:54.427Z,57.58
2019-05-03T21:48:21.167Z,57.50
2019-05-03T21:50:47.728Z,57.38
2019-05-03T21:53:14.739Z,57.32
2019-05-03T21:55:41.490Z,57.32
2019-05-03T21:58:08.083Z,57.33
2019-05-03T22:00:36.385Z,57.31
2019-05-03T22:03:05.081Z,57.27
2019-05-03T22:05:33.040Z,57.23
2019-05-03T22:07:59.754Z,57.15
2019-05-03T22:10:26.349Z,57.10
2019-05-03T22:12:54.430Z,57.06
2019-05-03T22:15:21.106Z,56.99
2019-05-03T22:17:47.686Z,56.82
2019-05-03T22:20:14.296Z,56.69
2019-05-03T22:22:40.867Z,56.69
2019-05-03T22:25:07.481Z,56.62
2019-05-03T22:27:34.881Z,56.64
2019-05-03T22:30:01.552Z,56.59
2019-05-03T22:32:28.120Z,56.42
2019-05-03T22:34:54.727Z,56.29
2019-05-03T22:37:21.299Z,56.16
2019-05-03T22:39:47.916Z,56.14
2019-05-03T22:42:14.817Z,56.02
2019-05-03T22:44:41.468Z,55.96
2019-05-03T22:47:08.035Z,55.93
2019-05-03T22:49:37.049Z,55.95
2019-05-03T22:52:04.807Z,55.93
2019-05-03T22:54:31.269Z,55.92
2019-05-03T22:56:57.845Z,55.87
2019-05-03T22:59:25.158Z,55.85
2019-05-03T23:01:52.114Z,55.79
2019-05-03T23:04:18.731Z,55.74
2019-05-03T23:06:47.126Z,55.71
2019-05-03T23:09:15.702Z,55.71
2019-05-03T23:11:41.916Z,55.72
2019-05-03T23:14:08.493Z,55.76
2019-05-03T23:16:35.685Z,55.73
2019-05-03T23:19:02.443Z,55.73
2019-05-03T23:21:29.058Z,55.69
2019-05-03T23:23:55.629Z,55.72
2019-05-03T23:26:22.233Z,55.70
2019-05-03T23:28:48.809Z,55.71
2019-05-03T23:31:15.423Z,55.72
2019-05-03T23:33:41.995Z,55.70
2019-05-03T23:36:08.605Z,55.69
2019-05-03T23:38:35.177Z,55.73
2019-05-03T23:41:01.799Z,55.79
2019-05-03T23:43:28.378Z,55.84
2019-05-03T23:45:54.971Z,55.89
2019-05-03T23:48:21.547Z,55.93
2019-05-03T23:50:48.154Z,56.01
2019-05-03T23:53:15.390Z,55.96
2019-05-03T23:55:42.120Z,55.99
2019-05-03T23:58:08.698Z,55.94
